Time;durP1;ratioP1;P1;durP2;ratioP2;P2;SDS_P1;SDS_P2;PMS_P1;PMS_P2;Temp;Humidity;BMP_temperature;BMP_pressure;BME280_temperature;BME280_humidity;BME280_pressure;Samples;Min_cycle;Max_cycle;Signal;HPM_P1;HPM_P2
2022/01/16 00:01:19;;;;;;;43.27;14.10;;;;;;;0.93;87.57;101543.53;1613440;87;21023;-73
2022/01/16 00:06:21;;;;;;;44.80;20.10;;;;;;;0.94;87.42;101551.71;1613835;89;21035;-75
2022/01/16 00:08:48;;;;;;;29.77;9.67;;;;;;;0.91;87.29;101557.24;1613695;89;21022;-73
2022/01/16 00:11:15;;;;;;;31.80;10.77;;;;;;;0.90;87.15;101549.92;1608604;89;21585;-72
2022/01/16 00:13:42;;;;;;;52.10;22.77;;;;;;;0.93;87.21;101547.41;1631411;88;20941;-72
2022/01/16 00:16:13;;;;;;;35.10;15.87;;;;;;;0.97;86.98;101541.48;1631418;88;21043;-72
2022/01/16 00:18:49;;;;;;;29.07;12.60;;;;;;;0.95;87.08;101538.41;1631673;88;21047;-72
2022/01/16 00:21:09;;;;;;;34.83;14.45;;;;;;;0.95;87.17;101552.61;1632796;86;21031;-73
2022/01/16 00:23:36;;;;;;;39.53;14.27;;;;;;;0.96;87.28;101562.08;1631780;88;21135;-73
2022/01/16 00:26:03;;;;;;;52.90;20.83;;;;;;;0.94;87.34;101567.20;1631386;88;21290;-73
2022/01/16 00:28:30;;;;;;;41.63;15.63;;;;;;;0.92;87.28;101565.03;1631706;88;21107;-72
2022/01/16 00:30:57;;;;;;;36.93;13.97;;;;;;;0.91;87.22;101552.95;1631568;88;21509;-73
2022/01/16 00:33:24;;;;;;;40.80;16.37;;;;;;;0.96;87.17;101529.39;1631813;88;21032;-73
2022/01/16 00:35:51;;;;;;;41.73;15.63;;;;;;;0.99;87.03;101516.54;1631557;88;21149;-72
2022/01/16 00:38:18;;;;;;;33.13;13.80;;;;;;;1.00;86.96;101522.56;1631575;88;20937;-72
2022/01/16 00:40:45;;;;;;;38.40;15.90;;;;;;;0.98;86.91;101521.69;1631411;88;21043;-73
2022/01/16 00:43:13;;;;;;;57.97;25.50;;;;;;;0.95;87.13;101519.91;1631911;88;21015;-73
2022/01/16 00:45:41;;;;;;;41.90;19.80;;;;;;;0.94;87.11;101512.99;1631501;88;21480;-73
2022/01/16 00:48:08;;;;;;;44.07;19.73;;;;;;;0.90;87.20;101529.27;1631693;88;21110;-73
2022/01/16 00:50:35;;;;;;;47.63;19.37;;;;;;;0.93;87.21;101534.92;1631386;88;21047;-75
2022/01/16 00:53:03;;;;;;;43.33;18.60;;;;;;;0.87;87.20;101548.14;1631468;88;20944;-73
2022/01/16 00:55:32;;;;;;;39.83;14.90;;;;;;;0.89;87.12;101543.03;1631574;88;21023;-72
2022/01/16 00:57:59;;;;;;;42.90;18.53;;;;;;;;;;1631463;88;21094;-73
2022/01/16 01:00:31;;;;;;;37.30;16.77;;;;;;;0.89;86.84;101515.92;1624548;88;21155;-73
2022/01/16 01:02:58;;;;;;;35.38;16.07;;;;;;;0.92;86.82;101514.69;1624800;87;21001;-72
2022/01/16 01:05:26;;;;;;;33.53;15.00;;;;;;;0.89;87.25;101529.70;1624868;88;21469;-73
2022/01/16 01:07:53;;;;;;;40.67;19.17;;;;;;;0.89;87.25;101529.70;1624758;88;21759;-73
2022/01/16 01:10:28;;;;;;;35.40;15.77;;;;;;;0.87;87.15;101545.56;1624543;87;21048;-73
2022/01/16 01:12:55;;;;;;;35.30;15.87;;;;;;;0.83;87.05;101541.58;1624554;88;21118;-73
2022/01/16 01:15:26;;;;;;;41.03;17.63;;;;;;;0.77;87.07;101547.91;1624666;87;21032;-73
2022/01/16 01:17:54;;;;;;;35.97;15.60;;;;;;;0.75;87.11;101518.22;1624766;88;21039;-72
2022/01/16 01:20:23;;;;;;;31.77;14.67;;;;;;;0.78;86.94;101496.77;1624617;88;21044;-73
2022/01/16 01:22:53;;;;;;;36.95;15.20;;;;;;;0.74;86.79;101522.91;1625003;88;21552;-73
2022/01/16 01:25:22;;;;;;;38.23;15.63;;;;;;;0.73;86.77;101530.64;1624433;88;21154;-72
2022/01/16 01:27:49;;;;;;;35.00;16.17;;;;;;;0.71;86.86;101520.69;1624746;87;21535;-73
2022/01/16 01:30:20;;;;;;;36.27;15.93;;;;;;;0.70;87.08;101516.38;1624521;88;21019;-74
2022/01/16 01:32:49;;;;;;;37.53;15.83;;;;;;;0.68;87.23;101526.66;1624508;88;21067;-73
2022/01/16 01:35:18;;;;;;;38.33;16.07;;;;;;;0.67;87.30;101530.09;1624791;88;21043;-75
2022/01/16 01:37:46;;;;;;;35.48;15.48;;;;;;;0.67;87.43;101514.61;1624628;88;21139;-73
2022/01/16 01:40:18;;;;;;;35.70;15.23;;;;;;;0.66;87.37;101508.97;1624713;87;21051;-73
2022/01/16 01:43:00;;;;;;;29.13;13.53;;;;;;;0.61;87.24;101466.72;1623703;88;21036;-73
2022/01/16 01:51:19;;;;;;;;;;;;;;;0.51;86.99;101385.70;1626982;88;22007;-72
2022/01/16 01:53:47;;;;;;;29.70;13.07;;;;;;;0.47;86.99;101379.16;1624400;88;20169;-72
2022/01/16 01:56:22;;;;;;;35.30;13.00;;;;;;;0.43;86.99;101388.55;1624663;88;21087;-75
2022/01/16 01:58:53;;;;;;;38.40;15.23;;;;;;;0.40;87.05;101429.33;1624590;86;21052;-72
2022/01/16 02:01:22;;;;;;;39.63;14.63;;;;;;;0.37;87.11;101433.56;1624594;88;21028;-72
2022/01/16 02:03:50;;;;;;;43.17;16.43;;;;;;;0.33;87.34;101451.08;1624482;88;21191;-73
2022/01/16 02:06:21;;;;;;;35.03;14.97;;;;;;;0.31;87.40;101434.73;1624624;88;21059;-72
2022/01/16 02:08:53;;;;;;;35.43;14.57;;;;;;;0.28;87.37;101420.45;1624526;88;21048;-73
2022/01/16 02:11:24;;;;;;;31.60;13.30;;;;;;;0.22;87.33;101422.48;1624490;88;21065;-72
2022/01/16 02:14:03;;;;;;;34.80;15.83;;;;;;;0.21;87.26;101436.22;1624388;88;21032;-72
2022/01/16 02:28:25;;;;;;;35.83;13.60;;;;;;;-0.07;86.67;101414.98;1624722;88;21035;-73
2022/01/16 02:35:53;;;;;;;41.25;15.85;;;;;;;-0.20;87.33;101445.59;1624615;88;21072;-74
2022/01/16 02:38:21;;;;;;;38.67;15.37;;;;;;;-0.28;87.11;101437.28;1598055;88;21032;-73
2022/01/16 02:40:54;;;;;;;32.80;14.83;;;;;;;-0.38;86.97;101439.17;1624414;88;21524;-72
2022/01/16 02:43:29;;;;;;;33.17;15.13;;;;;;;-0.44;86.73;101440.31;1624703;87;21162;-72
2022/01/16 02:46:08;;;;;;;33.90;13.78;;;;;;;-0.54;86.80;101458.52;1624385;87;21024;-72
2022/01/16 02:48:19;;;;;;;35.30;15.63;;;;;;;-0.55;86.97;101439.19;1627472;86;21112;-72
2022/01/16 02:50:47;;;;;;;34.87;15.07;;;;;;;-0.61;86.91;101434.75;1624492;88;21020;-72
2022/01/16 02:53:15;;;;;;;26.50;12.00;;;;;;;-0.64;87.16;101428.62;1624716;88;21572;-75
2022/01/16 02:55:44;;;;;;;26.57;10.97;;;;;;;-0.65;87.00;101420.05;1624563;88;21218;-72
2022/01/16 02:58:11;;;;;;;21.70;9.90;;;;;;;;;;1624753;88;20940;-72
2022/01/16 03:00:38;;;;;;;36.73;16.40;;;;;;;-0.71;86.85;101429.77;1624500;88;21039;-75
2022/01/16 03:03:06;;;;;;;68.97;31.63;;;;;;;-0.74;87.14;101415.53;1624692;87;21516;-76
2022/01/16 03:05:35;;;;;;;53.80;22.47;;;;;;;-0.76;87.42;101409.89;1624493;88;21661;-74
2022/01/16 03:08:04;;;;;;;36.27;14.50;;;;;;;-0.77;87.51;101412.02;1624779;87;21104;-72
2022/01/16 03:13:16;;;;;;;27.47;12.63;;;;;;;-0.87;87.07;101394.17;1624720;88;21031;-73
2022/01/16 03:15:44;;;;;;;34.00;13.03;;;;;;;-0.95;87.07;101393.97;1624554;87;21517;-72
2022/01/16 03:23:26;;;;;;;54.30;35.07;;;;;;;-1.03;87.34;101371.45;1618390;88;22193;-72
2022/01/16 03:25:54;;;;;;;50.33;30.47;;;;;;;-1.03;87.54;101359.86;1624748;88;21623;-73
2022/01/16 03:28:22;;;;;;;46.73;28.67;;;;;;;-1.05;87.53;101354.70;1624512;88;21088;-72
2022/01/16 03:30:50;;;;;;;45.47;17.30;;;;;;;-1.07;87.63;101358.06;1624462;87;21111;-75
2022/01/16 03:33:17;;;;;;;46.27;16.63;;;;;;;-1.10;87.23;101361.42;1624445;87;21136;-73
2022/01/16 03:35:44;;;;;;;65.97;27.50;;;;;;;-1.15;87.06;101351.00;1624418;88;21072;-72
2022/01/16 03:38:12;;;;;;;58.57;24.60;;;;;;;-1.18;87.37;101350.92;1624453;88;21055;-72
2022/01/16 03:40:40;;;;;;;49.60;21.23;;;;;;;-1.20;87.54;101342.29;1624530;88;21107;-72
2022/01/16 03:43:15;;;;;;;38.70;16.60;;;;;;;-1.19;87.65;101345.72;1624487;87;21307;-73
2022/01/16 03:45:45;;;;;;;41.33;16.30;;;;;;;-1.21;87.40;101339.27;1623724;88;21545;-72
2022/01/16 03:48:15;;;;;;;42.07;18.30;;;;;;;-1.26;87.36;101336.13;1624452;88;21013;-72
2022/01/16 03:50:42;;;;;;;39.00;19.57;;;;;;;-1.29;87.28;101327.05;1624658;87;21513;-72
2022/01/16 03:53:10;;;;;;;43.63;18.30;;;;;;;-1.33;87.49;101322.64;1624776;88;21043;-74
2022/01/16 03:55:37;;;;;;;42.27;17.77;;;;;;;-1.34;87.50;101329.48;1624544;88;21059;-72
2022/01/16 03:58:05;;;;;;;52.70;20.07;;;;;;;-1.39;87.19;101322.92;1624645;88;21502;-73
2022/01/16 04:00:32;;;;;;;51.60;21.20;;;;;;;-1.42;87.31;101323.27;1624489;88;21091;-72
2022/01/16 04:02:59;;;;;;;49.47;19.43;;;;;;;-1.44;87.38;101309.49;1624686;88;21031;-72
2022/01/16 04:05:26;;;;;;;49.13;20.27;;;;;;;-1.47;87.34;101303.89;1624601;88;21628;-73
2022/01/16 04:07:53;;;;;;;42.73;19.40;;;;;;;-1.47;87.55;101305.56;1624614;88;21063;-73
2022/01/16 04:10:21;;;;;;;45.97;19.47;;;;;;;-1.48;87.57;101301.26;1624674;88;21264;-73
2022/01/16 04:12:49;;;;;;;41.83;16.30;;;;;;;-1.48;87.71;101304.70;1624481;88;21048;-72
2022/01/16 04:17:45;;;;;;;41.20;18.57;;;;;;;-1.51;87.22;101296.91;1624688;88;21031;-72
2022/01/16 04:20:16;;;;;;;43.17;19.13;;;;;;;-1.60;87.06;101288.95;1624627;87;21571;-72
2022/01/16 04:22:45;;;;;;;39.97;18.27;;;;;;;-1.66;87.15;101283.23;1624961;88;21513;-73
2022/01/16 04:25:13;;;;;;;45.70;19.97;;;;;;;-1.70;87.07;101269.83;1624442;88;21028;-72
2022/01/16 04:27:42;;;;;;;52.17;21.13;;;;;;;-1.71;87.23;101268.52;1624802;88;21474;-73
2022/01/16 04:30:10;;;;;;;48.80;22.07;;;;;;;-1.75;87.24;101269.25;1624601;88;21628;-74
2022/01/16 04:32:37;;;;;;;39.47;18.20;;;;;;;-1.77;87.32;101269.62;1624588;88;21556;-72
2022/01/16 04:35:07;;;;;;;45.77;19.37;;;;;;;-1.79;87.45;101270.87;1624885;88;21748;-72
2022/01/16 04:37:34;;;;;;;36.80;17.57;;;;;;;-1.76;87.67;101259.81;1624647;88;21016;-74
2022/01/16 04:40:03;;;;;;;38.77;17.23;;;;;;;-1.78;87.61;101255.91;1624525;88;21063;-72
2022/01/16 04:45:17;;;;;;;46.87;19.37;;;;;;;-1.85;87.54;101249.73;1624947;88;21092;-72
2022/01/16 04:47:44;;;;;;;47.73;20.27;;;;;;;-1.83;87.80;101236.91;1624525;88;21153;-73
2022/01/16 04:50:13;;;;;;;49.23;21.83;;;;;;;-1.82;87.92;101233.12;1624800;88;21092;-73
2022/01/16 04:52:42;;;;;;;52.33;24.13;;;;;;;-1.81;87.82;101228.84;1624474;88;21104;-72
2022/01/16 04:55:12;;;;;;;51.43;22.93;;;;;;;-1.83;87.83;101219.83;1624567;88;21122;-73
2022/01/16 04:57:41;;;;;;;54.83;23.97;;;;;;;-1.82;88.01;101223.26;1624655;88;21188;-73
2022/01/16 05:00:13;;;;;;;56.30;25.33;;;;;;;-1.81;88.13;101209.56;1624503;88;21576;-72
2022/01/16 05:02:41;;;;;;;60.60;24.23;;;;;;;-1.81;88.09;101210.85;1624561;88;21051;-73
2022/01/16 05:05:09;;;;;;;55.43;24.00;;;;;;;-1.82;87.92;101207.84;1624637;88;21556;-72
2022/01/16 05:07:36;;;;;;;49.60;22.77;;;;;;;-1.84;87.76;101207.78;1624497;88;21516;-72
2022/01/16 05:10:06;;;;;;;53.67;23.23;;;;;;;-1.88;87.53;101195.70;1624585;88;21095;-72
2022/01/16 05:12:35;;;;;;;53.80;23.10;;;;;;;-1.89;87.68;101193.94;1624528;88;21052;-73
2022/01/16 05:17:48;;;;;;;56.67;23.20;;;;;;;-1.94;87.49;101193.37;1624459;88;21143;-72
2022/01/16 05:20:15;;;;;;;50.33;23.47;;;;;;;-1.97;87.28;101183.01;1624649;88;21040;-74
2022/01/16 05:22:42;;;;;;;50.83;23.47;;;;;;;-2.03;87.29;101176.88;1624562;88;21039;-73
2022/01/16 05:25:13;;;;;;;50.07;22.80;;;;;;;-2.04;87.17;101171.30;1624605;88;21194;-72
2022/01/16 05:27:39;;;;;;;46.48;20.52;;;;;;;-2.06;87.43;101163.95;1624776;88;21095;-72
2022/01/16 05:30:07;;;;;;;44.97;20.20;;;;;;;-2.02;87.83;101161.08;1624599;88;21028;-74
2022/01/16 05:32:36;;;;;;;43.47;20.47;;;;;;;-1.98;88.10;101155.17;1624645;88;21020;-72
2022/01/16 05:35:05;;;;;;;42.50;19.90;;;;;;;-1.92;88.37;101146.75;1624559;88;21095;-72
2022/01/16 05:37:32;;;;;;;46.03;20.37;;;;;;;-1.87;88.54;101138.75;1624547;88;21514;-73
2022/01/16 05:39:59;;;;;;;43.53;20.20;;;;;;;-1.83;88.72;101131.56;1624433;88;21051;-73
2022/01/16 05:42:26;;;;;;;46.83;21.20;;;;;;;-1.77;88.73;101134.30;1624553;88;21012;-72
2022/01/16 05:44:53;;;;;;;44.43;20.17;;;;;;;-1.75;88.78;101121.48;1624611;88;21089;-73
2022/01/16 05:47:20;;;;;;;47.70;21.30;;;;;;;-1.70;88.81;101127.18;1624467;88;21024;-75
2022/01/16 05:49:47;;;;;;;44.50;21.67;;;;;;;-1.68;88.83;101124.24;1624667;88;21573;-74
2022/01/16 05:52:14;;;;;;;54.10;22.50;;;;;;;-1.66;88.86;101107.59;1624511;88;21008;-72
2022/01/16 05:54:41;;;;;;;54.70;23.30;;;;;;;-1.64;88.83;101109.75;1624509;88;21557;-73
2022/01/16 05:57:09;;;;;;;49.97;23.13;;;;;;;-1.63;88.84;101118.80;1624484;88;21024;-72
2022/01/16 05:59:36;;;;;;;44.40;20.73;;;;;;;-1.60;88.78;101122.73;1624820;88;21063;-75
2022/01/16 06:02:04;;;;;;;49.57;22.23;;;;;;;-1.55;88.69;101119.38;1624527;88;21136;-72
2022/01/16 06:04:31;;;;;;;46.10;22.00;;;;;;;-1.54;88.58;101116.86;1624585;88;21036;-73
2022/01/16 06:06:59;;;;;;;55.70;24.80;;;;;;;-1.60;88.55;101111.16;1624500;88;21515;-76
2022/01/16 06:09:26;;;;;;;48.53;23.53;;;;;;;-1.62;88.67;101107.67;1597912;88;21037;-72
2022/01/16 06:11:57;;;;;;;53.93;22.30;;;;;;;-1.62;88.65;101111.53;1624616;87;21063;-72
2022/01/16 06:14:25;;;;;;;57.50;24.47;;;;;;;-1.62;88.57;101101.67;1624650;88;21905;-72
2022/01/16 06:16:52;;;;;;;48.97;23.63;;;;;;;-1.62;88.67;101093.96;1624463;88;21091;-72
2022/01/16 06:19:20;;;;;;;56.23;25.47;;;;;;;-1.61;88.61;101091.83;1624545;88;21055;-72
2022/01/16 06:21:48;;;;;;;53.30;26.37;;;;;;;-1.64;88.61;101084.91;1624702;88;21516;-72
2022/01/16 06:24:15;;;;;;;56.23;25.63;;;;;;;-1.64;88.52;101077.20;1624849;88;21035;-75
2022/01/16 06:26:43;;;;;;;54.20;24.57;;;;;;;-1.66;88.61;101076.74;1624578;88;21490;-73
2022/01/16 06:29:10;;;;;;;57.37;26.10;;;;;;;-1.63;88.47;101074.23;1624596;88;21108;-73
2022/01/16 06:31:37;;;;;;;59.80;28.80;;;;;;;-1.64;88.33;101079.77;1624791;88;21060;-72
2022/01/16 06:34:06;;;;;;;59.87;27.67;;;;;;;-1.69;88.35;101069.83;1624527;87;21083;-75
2022/01/16 06:36:34;;;;;;;59.07;26.77;;;;;;;-1.73;88.49;101069.28;1624744;88;21033;-73
2022/01/16 06:39:05;;;;;;;62.57;28.33;;;;;;;-1.74;88.44;101057.28;1624407;88;21964;-73
2022/01/16 06:41:34;;;;;;;58.50;28.50;;;;;;;-1.75;88.38;101064.94;1624573;87;21028;-73
2022/01/16 06:44:02;;;;;;;54.40;27.80;;;;;;;-1.80;88.41;101058.42;1624493;88;21044;-72
2022/01/16 06:46:29;;;;;;;60.00;28.40;;;;;;;-1.81;88.36;101059.23;1624728;88;21043;-72
2022/01/16 06:48:56;;;;;;;62.87;34.57;;;;;;;-1.83;88.45;101060.89;1624540;87;21076;-72
2022/01/16 06:51:24;;;;;;;59.67;27.97;;;;;;;-1.85;88.45;101068.58;1624673;88;21115;-73
2022/01/16 06:53:54;;;;;;;58.83;30.27;;;;;;;-1.84;88.49;101068.16;1624355;88;21086;-72
2022/01/16 06:56:21;;;;;;;55.43;27.30;;;;;;;-1.87;88.50;101060.38;1624476;88;21048;-72
2022/01/16 06:58:48;;;;;;;59.37;28.93;;;;;;;-1.86;88.42;101066.86;1624524;88;21028;-76
2022/01/16 07:01:15;;;;;;;68.00;31.47;;;;;;;-1.84;88.45;101073.30;1624580;88;21569;-73
2022/01/16 07:03:42;;;;;;;92.37;49.60;;;;;;;-1.85;88.50;101080.56;1624768;87;21509;-72
2022/01/16 07:06:11;;;;;;;65.13;33.23;;;;;;;-1.87;88.55;101078.37;1624513;87;21588;-72
2022/01/16 07:08:38;;;;;;;65.13;37.23;;;;;;;-1.84;88.48;101074.16;1624720;87;21024;-73
2022/01/16 07:11:05;;;;;;;65.30;34.53;;;;;;;-1.86;88.51;101068.53;1624489;88;21036;-73
2022/01/16 07:13:33;;;;;;;68.77;35.33;;;;;;;-1.85;88.49;101066.44;1624718;88;21151;-72
2022/01/16 07:16:00;;;;;;;68.23;35.40;;;;;;;-1.83;88.52;101062.17;1624485;88;21233;-72
2022/01/16 07:18:28;;;;;;;71.83;39.27;;;;;;;-1.82;88.63;101060.08;1624694;88;20985;-76
2022/01/16 07:20:55;;;;;;;68.30;29.53;;;;;;;-1.80;88.57;101065.71;1624546;88;22038;-72
2022/01/16 07:23:24;;;;;;;74.97;36.13;;;;;;;-1.78;88.61;101062.30;1624643;88;21084;-72
2022/01/16 07:25:52;;;;;;;74.10;35.28;;;;;;;-1.75;88.55;101058.52;1624690;88;21113;-73
2022/01/16 07:28:21;;;;;;;92.13;42.17;;;;;;;-1.76;88.61;101053.80;1624698;88;21035;-72
2022/01/16 07:30:48;;;;;;;81.03;39.00;;;;;;;-1.73;88.57;101050.44;1624536;88;20937;-72
2022/01/16 07:33:15;;;;;;;81.17;41.00;;;;;;;-1.72;88.62;101054.73;1624650;88;21044;-72
2022/01/16 07:35:42;;;;;;;70.53;33.80;;;;;;;-1.69;88.60;101052.22;1624596;87;21016;-73
2022/01/16 07:38:10;;;;;;;74.90;36.33;;;;;;;-1.68;88.67;101053.98;1624463;88;21553;-72
2022/01/16 07:40:38;;;;;;;84.53;41.83;;;;;;;-1.67;88.65;101056.99;1624457;88;21139;-73
2022/01/16 07:43:06;;;;;;;81.80;40.80;;;;;;;-1.65;88.65;101058.77;1624497;88;21059;-74
2022/01/16 07:45:33;;;;;;;112.73;51.30;;;;;;;-1.61;88.74;101059.30;1624528;88;21051;-73
2022/01/16 07:48:00;;;;;;;92.80;45.20;;;;;;;-1.59;88.67;101062.76;1624439;88;21020;-73
2022/01/16 07:50:27;;;;;;;76.83;37.00;;;;;;;-1.57;88.71;101061.09;1624578;88;21616;-72
2022/01/16 07:52:54;;;;;;;66.83;32.17;;;;;;;-1.52;88.69;101061.60;1624376;88;21926;-73
2022/01/16 07:55:25;;;;;;;72.27;35.70;;;;;;;-1.49;88.75;101055.28;1624417;88;21084;-72
2022/01/16 07:57:51;;;;;;;68.00;34.73;;;;;;;-1.45;88.69;101050.64;1624568;87;21032;-73
2022/01/16 08:00:20;;;;;;;74.70;36.13;;;;;;;-1.42;88.73;101048.13;1624384;88;21059;-73
2022/01/16 08:02:50;;;;;;;71.67;38.02;;;;;;;-1.39;88.60;101053.34;1624593;88;21556;-73
2022/01/16 08:05:18;;;;;;;79.40;39.27;;;;;;;-1.37;88.61;101049.11;1624447;88;21146;-72
2022/01/16 08:07:46;;;;;;;79.67;37.87;;;;;;;-1.37;88.48;101054.25;1624641;88;21063;-73
2022/01/16 08:10:14;;;;;;;101.17;49.87;;;;;;;-1.34;88.68;101054.31;1624466;88;21020;-75
2022/01/16 08:12:41;;;;;;;114.10;53.77;;;;;;;-1.31;88.64;101044.09;1624641;88;21059;-76
2022/01/16 08:15:09;;;;;;;81.87;45.77;;;;;;;-1.28;88.71;101046.72;1624459;88;21059;-72
2022/01/16 08:17:36;;;;;;;105.90;56.10;;;;;;;-1.25;88.69;101039.50;1624777;87;21120;-72
2022/01/16 08:20:08;;;;;;;124.33;62.37;;;;;;;-1.23;88.72;101025.83;1624434;88;21043;-73
2022/01/16 08:22:36;;;;;;;96.37;48.07;;;;;;;-1.20;88.65;101017.31;1624687;88;21294;-72
2022/01/16 08:25:05;;;;;;;97.63;44.10;;;;;;;-1.17;88.74;101026.38;1624558;88;21468;-74
2022/01/16 08:27:32;;;;;;;82.37;41.07;;;;;;;-1.13;88.67;101030.77;1624583;88;21035;-72
2022/01/16 08:29:59;;;;;;;81.17;38.50;;;;;;;-1.12;88.70;101033.35;1624607;88;21517;-73
2022/01/16 08:32:27;;;;;;;70.43;33.53;;;;;;;-1.06;88.68;101034.31;1624759;88;21012;-73
2022/01/16 08:34:54;;;;;;;62.57;31.27;;;;;;;-1.02;88.87;101030.56;1624527;88;21051;-73
2022/01/16 08:37:21;;;;;;;74.27;33.90;;;;;;;-0.95;88.88;101025.97;1624521;88;20976;-74
2022/01/16 08:39:48;;;;;;;69.10;32.13;;;;;;;-0.88;88.86;101018.40;1624687;87;21610;-73
2022/01/16 08:42:16;;;;;;;65.63;31.70;;;;;;;-0.83;88.82;101019.33;1624903;87;21919;-74
2022/01/16 08:44:43;;;;;;;67.93;34.77;;;;;;;-0.76;88.82;101014.76;1624517;88;21055;-75
2022/01/16 08:47:11;;;;;;;67.47;34.20;;;;;;;-0.71;88.80;101015.72;1624780;88;21503;-73
2022/01/16 08:49:39;;;;;;;60.30;31.40;;;;;;;-0.62;88.83;101017.59;1624537;88;21088;-73
2022/01/16 08:52:06;;;;;;;67.57;32.63;;;;;;;-0.54;88.79;101019.46;1624609;88;21052;-73
2022/01/16 08:54:34;;;;;;;67.20;31.70;;;;;;;-0.46;88.86;101014.03;1624883;88;21139;-73
2022/01/16 08:57:04;;;;;;;65.73;32.90;;;;;;;-0.33;88.86;101009.97;1624723;88;21032;-73
2022/01/16 08:59:32;;;;;;;64.00;31.33;;;;;;;-0.25;88.86;101008.79;1624469;88;21043;-73
2022/01/16 09:01:59;;;;;;;84.20;41.13;;;;;;;-0.12;88.76;101011.16;1624837;88;21031;-73
2022/01/16 09:04:26;;;;;;;110.73;51.07;;;;;;;-0.01;88.79;101013.06;1624756;87;21040;-74
2022/01/16 09:06:53;;;;;;;104.33;47.90;;;;;;;0.06;88.57;101010.17;1624408;87;21144;-73
2022/01/16 09:09:21;;;;;;;101.97;43.73;;;;;;;0.18;88.59;101011.64;1624743;88;21028;-73
2022/01/16 09:11:48;;;;;;;93.33;41.77;;;;;;;0.29;88.60;101013.52;1624768;88;21016;-73
2022/01/16 09:14:15;;;;;;;65.33;31.60;;;;;;;0.42;88.40;101014.15;1624451;88;21099;-73
2022/01/16 09:16:42;;;;;;;61.47;30.77;;;;;;;0.59;88.40;101022.12;1624594;88;21036;-73
2022/01/16 09:19:10;;;;;;;65.90;31.87;;;;;;;0.72;88.22;101018.86;1624398;88;21588;-73
2022/01/16 09:21:37;;;;;;;66.20;31.00;;;;;;;0.80;88.17;101020.22;1624676;88;21313;-73
2022/01/16 09:24:06;;;;;;;67.60;33.93;;;;;;;0.83;87.98;101022.45;1624418;88;21016;-74
2022/01/16 09:26:33;;;;;;;64.67;32.97;;;;;;;0.82;87.59;101024.56;1624557;88;21669;-73
2022/01/16 09:29:00;;;;;;;63.80;33.33;;;;;;;0.81;87.50;101020.27;1624490;88;21060;-73
2022/01/16 09:31:27;;;;;;;73.30;34.20;;;;;;;0.80;87.05;101023.67;1624488;88;21131;-73
2022/01/16 09:33:56;;;;;;;64.73;32.40;;;;;;;0.74;86.88;101027.47;1624692;87;21017;-73
2022/01/16 09:36:23;;;;;;;64.77;30.60;;;;;;;0.71;86.65;101016.25;1624480;88;21545;-75
2022/01/16 09:38:50;;;;;;;61.07;30.93;;;;;;;0.72;86.56;101020.16;1624564;88;21021;-74
2022/01/16 09:41:17;;;;;;;73.10;33.37;;;;;;;0.70;86.77;101017.97;1624428;88;21059;-73
2022/01/16 09:43:45;;;;;;;69.60;34.83;;;;;;;0.77;86.95;101024.06;1624595;88;21385;-73
2022/01/16 09:46:12;;;;;;;58.73;32.03;;;;;;;0.81;86.89;101019.40;1624428;88;21044;-73
2022/01/16 09:48:39;;;;;;;69.37;34.50;;;;;;;0.93;87.00;101010.50;1624590;88;22144;-74
2022/01/16 09:51:07;;;;;;;66.13;32.37;;;;;;;1.00;86.92;101014.02;1624439;87;21019;-73
2022/01/16 09:53:34;;;;;;;63.63;33.23;;;;;;;1.06;86.65;101005.08;1624723;88;21032;-73
2022/01/16 09:56:01;;;;;;;71.17;35.73;;;;;;;1.17;86.67;101003.91;1624361;87;21950;-74
2022/01/16 09:58:28;;;;;;;68.43;34.23;;;;;;;1.25;86.72;100988.08;1624468;87;21082;-74
2022/01/16 10:00:56;;;;;;;67.80;34.23;;;;;;;1.40;86.76;100984.77;1624432;87;21091;-74
2022/01/16 10:03:40;;;;;;;63.17;35.20;;;;;;;1.54;86.66;100981.45;1624612;88;21040;-73
2022/01/16 10:06:19;;;;;;;70.43;34.40;;;;;;;1.67;86.59;100968.23;1624146;88;21608;-74
2022/01/16 10:08:47;;;;;;;61.30;30.20;;;;;;;1.92;86.62;100973.16;1624699;88;21115;-73
2022/01/16 10:11:29;;;;;;;60.20;32.70;;;;;;;2.14;86.50;100970.73;1624235;88;21084;-74
2022/01/16 10:14:02;;;;;;;59.27;31.13;;;;;;;2.33;86.24;100967.81;1624620;88;21465;-74
2022/01/16 10:16:33;;;;;;;63.20;31.40;;;;;;;2.51;85.70;100962.74;1624449;88;21600;-76
2022/01/16 10:19:02;;;;;;;62.10;31.13;;;;;;;2.69;85.54;100960.69;1624690;88;21279;-73
2022/01/16 10:21:38;;;;;;;50.30;29.20;;;;;;;2.84;85.24;100954.26;1624335;87;21144;-76
2022/01/16 10:24:26;;;;;;;49.67;29.47;;;;;;;3.04;85.16;100946.98;1624665;88;21079;-73
2022/01/16 10:27:17;;;;;;;54.53;28.80;;;;;;;3.26;84.90;100942.27;1600436;88;21126;-76
2022/01/16 10:29:52;;;;;;;56.50;28.33;;;;;;;3.31;84.38;100937.11;1613842;89;21008;-73
2022/01/16 10:32:26;;;;;;;53.17;29.73;;;;;;;3.33;84.19;100932.36;1608609;89;21380;-75
2022/01/16 10:35:17;;;;;;;50.27;27.30;;;;;;;3.39;84.16;100930.65;1631533;87;21271;-73
2022/01/16 10:37:47;;;;;;;51.90;26.30;;;;;;;3.39;83.87;100922.88;1584849;90;21102;-74
2022/01/16 10:40:34;;;;;;;50.85;25.75;;;;;;;3.35;83.47;100916.39;1622532;88;21029;-74
2022/01/16 10:43:06;;;;;;;46.93;26.27;;;;;;;3.35;83.44;100913.80;1622249;88;21051;-73
2022/01/16 10:45:32;;;;;;;50.48;27.10;;;;;;;3.33;83.38;100916.81;1622414;88;21099;-74
2022/01/16 10:48:01;;;;;;;50.57;26.03;;;;;;;3.28;83.18;100915.95;1622460;88;21865;-73
2022/01/16 10:50:36;;;;;;;47.07;24.90;;;;;;;3.23;82.86;100909.89;1622461;88;21566;-73
2022/01/16 10:53:21;;;;;;;43.13;22.17;;;;;;;3.23;82.92;100912.48;1622215;88;21051;-74
2022/01/16 10:55:57;;;;;;;48.00;25.53;;;;;;;3.25;82.97;100905.58;1622025;88;21048;-73
2022/01/16 10:58:41;;;;;;;50.00;25.77;;;;;;;3.26;83.20;100897.38;1622137;88;21062;-73
2022/01/16 11:01:16;;;;;;;50.50;28.10;;;;;;;3.28;83.28;100896.95;1622292;88;21150;-74
2022/01/16 11:03:49;;;;;;;54.17;27.97;;;;;;;3.30;82.88;100895.23;1622144;88;21040;-73
2022/01/16 11:06:21;;;;;;;50.80;27.20;;;;;;;3.30;83.08;100889.61;1622218;88;21029;-73
2022/01/16 11:08:57;;;;;;;55.73;29.23;;;;;;;3.34;82.94;100883.99;1622145;88;21020;-75
2022/01/16 11:11:26;;;;;;;56.13;28.17;;;;;;;3.44;82.87;100876.66;1622040;88;21024;-73
2022/01/16 11:14:04;;;;;;;50.37;29.10;;;;;;;3.57;82.75;100866.72;1622185;88;22011;-75
2022/01/16 11:16:24;;;;;;;52.60;28.95;;;;;;;3.72;82.83;100866.27;1623425;87;21016;-73
2022/01/16 11:18:52;;;;;;;57.07;29.90;;;;;;;3.87;82.82;100870.55;1622183;88;21052;-73
2022/01/16 11:21:35;;;;;;;51.63;27.00;;;;;;;4.00;82.47;100861.89;1622178;88;21060;-73
2022/01/16 11:24:25;;;;;;;49.17;28.63;;;;;;;4.15;82.31;100858.38;1622565;88;21051;-73
2022/01/16 11:26:31;;;;;;;55.12;31.45;;;;;;;4.24;82.02;100844.95;1624183;87;21336;-75
2022/01/16 11:28:58;;;;;;;54.13;28.50;;;;;;;4.45;82.15;100848.30;1622095;88;21020;-74
2022/01/16 11:31:26;;;;;;;47.47;26.50;;;;;;;4.66;82.14;100846.91;1622274;88;21079;-73
2022/01/16 11:33:53;;;;;;;49.60;27.03;;;;;;;4.90;82.22;100842.00;1622407;88;21123;-74
2022/01/16 11:36:30;;;;;;;44.27;26.70;;;;;;;5.15;82.02;100841.80;1622122;88;21092;-74
2022/01/16 11:39:05;;;;;;;52.13;27.70;;;;;;;5.36;81.51;100848.13;1622220;88;21079;-74
2022/01/16 11:41:38;;;;;;;49.13;27.50;;;;;;;5.44;81.00;100837.67;1621043;88;21055;-73
2022/01/16 11:44:08;;;;;;;51.47;27.60;;;;;;;5.46;80.52;100826.83;1622097;88;21020;-76
2022/01/16 11:46:43;;;;;;;45.77;27.10;;;;;;;5.45;80.46;100815.98;1619586;88;21115;-73
2022/01/16 11:49:17;;;;;;;48.93;28.17;;;;;;;5.46;80.16;100818.14;1621559;88;21060;-73
2022/01/16 11:51:51;;;;;;;46.80;29.50;;;;;;;5.46;80.30;100816.84;1621940;88;21159;-74
2022/01/16 11:54:27;;;;;;;48.13;28.40;;;;;;;5.49;80.29;100817.70;1622999;87;21578;-73
2022/01/16 11:57:01;;;;;;;42.00;25.10;;;;;;;5.51;80.20;100819.83;1622218;88;21465;-74
2022/01/16 11:59:40;;;;;;;48.10;26.37;;;;;;;5.46;80.04;100816.44;1622069;88;21024;-73
2022/01/16 12:02:16;;;;;;;47.67;25.80;;;;;;;5.40;79.93;100815.61;1622300;88;21592;-73
2022/01/16 12:04:48;;;;;;;45.53;25.57;;;;;;;5.32;79.76;100807.88;1622070;88;21998;-73